Casa Grande, AZ (85193)

4:59 PM MST on October 22, 2014 (GMT -0700)
Vyn's tower | Change Station
CLOSE
Current Station
Personal Weather Station
Location: Arizona City, AZ
Elevation: 1530 ft
Nearby Weather Stations

Elev 1530 ft 32.73 °N, 111.66 °W | Updated 3 seconds ago

Clear
Clear
87.1 °F
Feels Like 84 °F
N
2.9
Wind Variable Wind from WNW
Gusts 4.0 mph

Today
High -- | Low -- °F
--% Chance of Precip.
Yesterday
High -- | Low -- °F
Precip. -- in
6:37 AM 5:46 PM
Waning Crescent, 1% visible
Pressure 29.92 in
Visibility 10.0 miles
Clouds Clear
Heat Index 84 °F
Dew Point 48 °F
Humidity 26%
Rainfall 0.00 in
Snow Depth Not available.
UV 0 out of 12
Pollen 5.40 out of 12
Air Quality Not available.
Flu Activity No Activity
METAR KCGZ 222355Z AUTO 00000KT 10SM CLR 31/09 A2992 RMK AO1 10310 20260 403100150 57007

More Conditions Fewer Conditions

Pressure 29.92 in
Visibility 10.0 miles
Clouds Clear
Heat Index 84 °F
Dew Point 48 °F
Humidity 26%
Rainfall 0.00 in
Snow Depth Not available.
UV 0 out of 12
Pollen 5.40 out of 12
Air Quality Not available.
Flu Activity No Activity
METAR KCGZ 222355Z AUTO 00000KT 10SM CLR 31/09 A2992 RMK AO1 10310 20260 403100150 57007

More Conditions Fewer Conditions

10-Day Weather Forecast

Almanac

Astronomy

Oct. 22, 2014 Rise Set
Actual Time 6:37 AM MST 5:46 PM MST
Civil Twilight 6:12 AM MST 6:11 PM MST
Nautical Twilight 5:43 AM MST 6:40 PM MST
Astronomical Twilight 5:14 AM MST 7:08 PM MST
Moon 5:25 AM MST 5:12 PM MST
Length of Visible Light 11h 59m
Length of Day
11h 09m
Tomorrow will be 1m 53s shorter.
Waning Crescent, 1% of the Moon is Illuminated
Today
Waning Crescent
Oct 23
New
Oct 30
First Quarter
Nov 6
Full
Nov 14
Last Quarter

Today's Extremes

State Highs State Lows

Community

WunderPhotos

Upload Photos

1,764,080 photos uploaded!

WunderBlogs® & News

Nearby

Snow Depth

Station Depth Elevation
Baldy 0 in 9125 ft
Hannagan Meadows 0 in 9020 ft
Beaver Head 0 in 7990 ft

Earthquake Activity

City Distance Mag. Time & Date
No recent earthquake activity has been reported nearby.
Minimum magnitude displayed is 2.5.

Coastal Water Temperatures

Place Temperature
No Stations Reporting

Nearby Weather Stations